sensor_id;sensor_type;location;lat;lon;timestamp;pressure;altitude;pressure_sealevel;temperature;humidity
30714;BME280;17465;47.934;33.430;2024-03-02T00:01:53;57242.53;;;-140.43;80.64
30714;BME280;17465;47.934;33.430;2024-03-02T00:04:24;57239.35;;;-140.43;80.30
30714;BME280;17465;47.934;33.430;2024-03-02T00:06:54;57270.06;;;-140.43;81.46
30714;BME280;17465;47.934;33.430;2024-03-02T00:09:25;57270.06;;;-140.43;81.46
30714;BME280;17465;47.934;33.430;2024-03-02T00:11:55;57226.64;;;-140.43;80.88
30714;BME280;17465;47.934;33.430;2024-03-02T00:14:28;57238.29;;;-140.43;80.24
30714;BME280;17465;47.934;33.430;2024-03-02T00:16:57;57253.12;;;-140.43;81.63
30714;BME280;17465;47.934;33.430;2024-03-02T00:19:29;57254.18;;;-140.43;82.03
30714;BME280;17465;47.934;33.430;2024-03-02T00:22:01;57254.18;;;-140.43;82.03
30714;BME280;17465;47.934;33.430;2024-03-02T00:24:33;57243.59;;;-140.43;82.39
30714;BME280;17465;47.934;33.430;2024-03-02T00:27:04;57223.46;;;-140.43;81.23
30714;BME280;17465;47.934;33.430;2024-03-02T00:29:36;57221.35;;;-140.43;80.62
30714;BME280;17465;47.934;33.430;2024-03-02T00:32:11;57215.00;;;-140.43;81.28
30714;BME280;17465;47.934;33.430;2024-03-02T00:34:40;57236.18;;;-140.43;81.68
30714;BME280;17465;47.934;33.430;2024-03-02T00:37:11;57245.71;;;-140.43;82.25
30714;BME280;17465;47.934;33.430;2024-03-02T00:39:41;57245.71;;;-140.43;82.25
30714;BME280;17465;47.934;33.430;2024-03-02T00:42:12;57241.47;;;-140.43;82.99
30714;BME280;17465;47.934;33.430;2024-03-02T00:44:42;57241.47;;;-140.43;82.99
30714;BME280;17465;47.934;33.430;2024-03-02T00:47:12;57252.06;;;-140.43;82.51
30714;BME280;17465;47.934;33.430;2024-03-02T00:49:42;57207.58;;;-140.43;82.03
30714;BME280;17465;47.934;33.430;2024-03-02T00:52:13;57207.58;;;-140.43;82.03
30714;BME280;17465;47.934;33.430;2024-03-02T00:54:43;57240.41;;;-140.43;82.47
30714;BME280;17465;47.934;33.430;2024-03-02T00:57:14;57248.88;;;-140.43;82.27
30714;BME280;17465;47.934;33.430;2024-03-02T00:59:45;57241.47;;;-140.43;82.87
30714;BME280;17465;47.934;33.430;2024-03-02T01:02:15;57241.47;;;-140.43;82.87
30714;BME280;17465;47.934;33.430;2024-03-02T01:04:46;57242.53;;;-140.43;82.12
30714;BME280;17465;47.934;33.430;2024-03-02T01:07:16;57242.53;;;-140.43;82.12
30714;BME280;17465;47.934;33.430;2024-03-02T01:09:46;57240.41;;;-140.43;83.35
30714;BME280;17465;47.934;33.430;2024-03-02T01:12:16;57248.88;;;-140.43;83.02
30714;BME280;17465;47.934;33.430;2024-03-02T01:14:47;57251.00;;;-140.43;83.11
30714;BME280;17465;47.934;33.430;2024-03-02T01:17:17;57212.87;;;-140.43;82.15
30714;BME280;17465;47.934;33.430;2024-03-02T01:19:47;57212.87;;;-140.43;82.15
30714;BME280;17465;47.934;33.430;2024-03-02T01:22:17;57230.88;;;-140.43;82.89
30714;BME280;17465;47.934;33.430;2024-03-02T01:24:48;57200.17;;;-140.43;83.61
30714;BME280;17465;47.934;33.430;2024-03-02T01:27:18;57253.12;;;-140.43;83.20
30714;BME280;17465;47.934;33.430;2024-03-02T01:29:48;57243.59;;;-140.43;82.99
30714;BME280;17465;47.934;33.430;2024-03-02T01:32:18;57251.00;;;-140.43;82.95
30714;BME280;17465;47.934;33.430;2024-03-02T01:34:48;57251.00;;;-140.43;82.95
30714;BME280;17465;47.934;33.430;2024-03-02T01:37:19;57251.00;;;-140.43;83.12
30714;BME280;17465;47.934;33.430;2024-03-02T01:39:49;57251.00;;;-140.43;83.12
30714;BME280;17465;47.934;33.430;2024-03-02T01:42:19;57262.65;;;-140.43;83.36
30714;BME280;17465;47.934;33.430;2024-03-02T01:44:50;57262.65;;;-140.43;83.36
30714;BME280;17465;47.934;33.430;2024-03-02T01:47:21;57283.83;;;-140.43;83.44
30714;BME280;17465;47.934;33.430;2024-03-02T01:49:51;57254.18;;;-140.43;83.84
30714;BME280;17465;47.934;33.430;2024-03-02T01:52:21;57257.36;;;-140.43;82.65
30714;BME280;17465;47.934;33.430;2024-03-02T01:54:52;57223.46;;;-140.43;82.66
30714;BME280;17465;47.934;33.430;2024-03-02T01:57:22;57237.23;;;-140.43;83.25
30714;BME280;17465;47.934;33.430;2024-03-02T01:59:52;57249.95;;;-140.43;84.08
30714;BME280;17465;47.934;33.430;2024-03-02T02:02:23;57234.06;;;-140.43;83.69
30714;BME280;17465;47.934;33.430;2024-03-02T02:04:53;57226.64;;;-140.43;83.57
30714;BME280;17465;47.934;33.430;2024-03-02T02:07:23;57226.64;;;-140.43;83.37
30714;BME280;17465;47.934;33.430;2024-03-02T02:09:53;57231.94;;;-140.43;84.21
30714;BME280;17465;47.934;33.430;2024-03-02T02:12:24;57242.53;;;-140.43;84.18
30714;BME280;17465;47.934;33.430;2024-03-02T02:14:54;57242.53;;;-140.43;84.18
30714;BME280;17465;47.934;33.430;2024-03-02T02:17:24;57240.41;;;-140.43;83.21
30714;BME280;17465;47.934;33.430;2024-03-02T02:19:55;57269.00;;;-140.43;83.61
30714;BME280;17465;47.934;33.430;2024-03-02T02:22:25;57251.00;;;-140.43;83.85
30714;BME280;17465;47.934;33.430;2024-03-02T02:24:55;57254.18;;;-140.43;83.97
30714;BME280;17465;47.934;33.430;2024-03-02T02:27:25;57261.59;;;-140.43;84.67
30714;BME280;17465;47.934;33.430;2024-03-02T02:29:56;57251.00;;;-140.43;84.38
30714;BME280;17465;47.934;33.430;2024-03-02T02:32:26;57251.00;;;-140.43;84.38
30714;BME280;17465;47.934;33.430;2024-03-02T02:34:56;57238.29;;;-140.43;84.77
30714;BME280;17465;47.934;33.430;2024-03-02T02:37:26;57256.30;;;-140.43;83.76
30714;BME280;17465;47.934;33.430;2024-03-02T02:39:56;57234.06;;;-140.43;83.90
30714;BME280;17465;47.934;33.430;2024-03-02T02:42:27;57234.06;;;-140.43;83.90
30714;BME280;17465;47.934;33.430;2024-03-02T02:44:57;57217.11;;;-140.43;83.83
30714;BME280;17465;47.934;33.430;2024-03-02T02:47:27;57246.77;;;-140.43;84.11
30714;BME280;17465;47.934;33.430;2024-03-02T02:49:58;57245.71;;;-140.43;84.32
30714;BME280;17465;47.934;33.430;2024-03-02T02:52:32;57269.00;;;-140.43;84.55
30714;BME280;17465;47.934;33.430;2024-03-02T02:55:07;57269.00;;;-140.43;84.55
30714;BME280;17465;47.934;33.430;2024-03-02T02:57:40;57274.30;;;-140.43;84.60
30714;BME280;17465;47.934;33.430;2024-03-02T03:00:14;57254.18;;;-140.43;84.35
30714;BME280;17465;47.934;33.430;2024-03-02T03:02:48;57223.46;;;-140.43;84.55
30714;BME280;17465;47.934;33.430;2024-03-02T03:05:19;57238.29;;;-140.43;84.28
30714;BME280;17465;47.934;33.430;2024-03-02T03:07:50;57263.71;;;-140.43;85.06
30714;BME280;17465;47.934;33.430;2024-03-02T03:10:20;57234.06;;;-140.43;84.05
30714;BME280;17465;47.934;33.430;2024-03-02T03:12:51;57235.12;;;-140.43;83.78
30714;BME280;17465;47.934;33.430;2024-03-02T03:15:21;57262.65;;;-140.43;84.95
30714;BME280;17465;47.934;33.430;2024-03-02T03:17:51;57251.00;;;-140.43;86.21
30714;BME280;17465;47.934;33.430;2024-03-02T03:20:21;57238.29;;;-140.43;85.04
30714;BME280;17465;47.934;33.430;2024-03-02T03:22:51;57249.95;;;-140.43;84.58
30714;BME280;17465;47.934;33.430;2024-03-02T03:25:22;57225.59;;;-140.43;85.02
30714;BME280;17465;47.934;33.430;2024-03-02T03:27:52;57247.82;;;-140.43;86.29
30714;BME280;17465;47.934;33.430;2024-03-02T03:30:22;57242.53;;;-140.43;86.19
30714;BME280;17465;47.934;33.430;2024-03-02T03:32:52;57247.82;;;-140.43;85.39
30714;BME280;17465;47.934;33.430;2024-03-02T03:35:23;57235.12;;;-140.43;84.82
30714;BME280;17465;47.934;33.430;2024-03-02T03:37:53;57239.35;;;-140.43;86.65
30714;BME280;17465;47.934;33.430;2024-03-02T03:40:23;57265.83;;;-140.43;86.15
30714;BME280;17465;47.934;33.430;2024-03-02T03:42:53;57253.12;;;-140.43;87.05
30714;BME280;17465;47.934;33.430;2024-03-02T03:45:23;57267.95;;;-140.43;86.02
30714;BME280;17465;47.934;33.430;2024-03-02T03:47:54;57248.88;;;-140.43;88.10
30714;BME280;17465;47.934;33.430;2024-03-02T03:50:24;57270.06;;;-140.43;86.38
30714;BME280;17465;47.934;33.430;2024-03-02T03:52:54;57270.06;;;-140.43;86.38
30714;BME280;17465;47.934;33.430;2024-03-02T03:55:25;57271.13;;;-140.43;89.10
30714;BME280;17465;47.934;33.430;2024-03-02T03:57:55;57252.06;;;-140.43;88.51
30714;BME280;17465;47.934;33.430;2024-03-02T04:00:25;57245.71;;;-140.43;87.17
30714;BME280;17465;47.934;33.430;2024-03-02T04:02:56;57259.47;;;-140.43;88.11
30714;BME280;17465;47.934;33.430;2024-03-02T04:05:26;57234.06;;;-140.43;87.41
30714;BME280;17465;47.934;33.430;2024-03-02T04:07:56;57234.06;;;-140.43;87.41
30714;BME280;17465;47.934;33.430;2024-03-02T04:10:27;57275.36;;;-140.43;89.89
30714;BME280;17465;47.934;33.430;2024-03-02T04:12:57;57255.24;;;-140.43;89.34
30714;BME280;17465;47.934;33.430;2024-03-02T04:15:27;57255.24;;;-140.43;89.34
30714;BME280;17465;47.934;33.430;2024-03-02T04:17:57;57244.65;;;-140.43;88.18
30714;BME280;17465;47.934;33.430;2024-03-02T04:20:28;57229.82;;;-140.43;89.11
30714;BME280;17465;47.934;33.430;2024-03-02T04:22:58;57208.64;;;-140.43;89.22
30714;BME280;17465;47.934;33.430;2024-03-02T04:25:29;57233.00;;;-140.43;90.00
30714;BME280;17465;47.934;33.430;2024-03-02T04:27:59;57233.00;;;-140.43;90.00
30714;BME280;17465;47.934;33.430;2024-03-02T04:30:29;57253.12;;;-140.43;88.79
30714;BME280;17465;47.934;33.430;2024-03-02T04:33:00;57253.12;;;-140.43;88.79
30714;BME280;17465;47.934;33.430;2024-03-02T04:35:30;57234.06;;;-140.43;87.52
30714;BME280;17465;47.934;33.430;2024-03-02T04:38:01;57255.24;;;-140.43;87.79
30714;BME280;17465;47.934;33.430;2024-03-02T04:40:31;57233.00;;;-140.43;88.55
30714;BME280;17465;47.934;33.430;2024-03-02T04:43:01;57228.76;;;-140.43;87.80
30714;BME280;17465;47.934;33.430;2024-03-02T04:45:32;57217.11;;;-140.43;86.23
30714;BME280;17465;47.934;33.430;2024-03-02T04:48:02;57252.06;;;-140.43;86.01
30714;BME280;17465;47.934;33.430;2024-03-02T04:50:33;57238.29;;;-140.43;86.16
30714;BME280;17465;47.934;33.430;2024-03-02T04:53:03;57237.23;;;-140.43;90.07
30714;BME280;17465;47.934;33.430;2024-03-02T04:55:34;57249.95;;;-140.43;88.82
30714;BME280;17465;47.934;33.430;2024-03-02T04:58:04;57249.95;;;-140.43;88.82
30714;BME280;17465;47.934;33.430;2024-03-02T05:00:35;57257.36;;;-140.43;89.29
30714;BME280;17465;47.934;33.430;2024-03-02T05:03:05;57257.36;;;-140.43;90.32
30714;BME280;17465;47.934;33.430;2024-03-02T05:05:35;57253.12;;;-140.43;89.62
30714;BME280;17465;47.934;33.430;2024-03-02T05:08:06;57254.18;;;-140.43;87.83
30714;BME280;17465;47.934;33.430;2024-03-02T05:10:36;57247.82;;;-140.43;88.37
30714;BME280;17465;47.934;33.430;2024-03-02T05:13:06;57235.12;;;-140.43;86.88
30714;BME280;17465;47.934;33.430;2024-03-02T05:15:37;57235.12;;;-140.43;86.88
30714;BME280;17465;47.934;33.430;2024-03-02T05:18:07;57257.36;;;-140.43;86.58
30714;BME280;17465;47.934;33.430;2024-03-02T05:20:38;57257.36;;;-140.43;86.58
30714;BME280;17465;47.934;33.430;2024-03-02T05:23:08;57223.46;;;-140.43;86.73
30714;BME280;17465;47.934;33.430;2024-03-02T05:25:38;57245.71;;;-140.43;87.24
30714;BME280;17465;47.934;33.430;2024-03-02T05:28:09;57245.71;;;-140.43;87.24
30714;BME280;17465;47.934;33.430;2024-03-02T05:30:39;57242.53;;;-140.43;88.50
30714;BME280;17465;47.934;33.430;2024-03-02T05:33:09;57240.41;;;-140.43;86.95
30714;BME280;17465;47.934;33.430;2024-03-02T05:35:41;57240.41;;;-140.43;86.95
30714;BME280;17465;47.934;33.430;2024-03-02T05:38:11;57247.82;;;-140.43;86.14
30714;BME280;17465;47.934;33.430;2024-03-02T05:40:41;57259.47;;;-140.43;88.34
30714;BME280;17465;47.934;33.430;2024-03-02T05:43:11;57235.12;;;-140.43;87.41
30714;BME280;17465;47.934;33.430;2024-03-02T05:45:42;57247.82;;;-140.43;87.62
30714;BME280;17465;47.934;33.430;2024-03-02T05:48:12;57260.54;;;-140.43;87.88
30714;BME280;17465;47.934;33.430;2024-03-02T05:50:42;57262.65;;;-140.43;88.22
30714;BME280;17465;47.934;33.430;2024-03-02T05:53:12;57262.65;;;-140.43;88.14
30714;BME280;17465;47.934;33.430;2024-03-02T05:55:42;57253.12;;;-140.43;88.21
30714;BME280;17465;47.934;33.430;2024-03-02T05:58:12;57258.41;;;-140.43;87.41
30714;BME280;17465;47.934;33.430;2024-03-02T06:00:43;57247.82;;;-140.43;88.08
30714;BME280;17465;47.934;33.430;2024-03-02T06:03:13;57227.70;;;-140.43;88.01
30714;BME280;17465;47.934;33.430;2024-03-02T06:05:43;57227.70;;;-140.43;88.01
30714;BME280;17465;47.934;33.430;2024-03-02T06:08:13;57241.47;;;-140.43;87.07
30714;BME280;17465;47.934;33.430;2024-03-02T06:10:44;57278.54;;;-140.43;86.03
30714;BME280;17465;47.934;33.430;2024-03-02T06:13:14;57224.53;;;-140.43;87.21
30714;BME280;17465;47.934;33.430;2024-03-02T06:15:44;57244.65;;;-140.43;85.79
30714;BME280;17465;47.934;33.430;2024-03-02T06:18:15;57249.95;;;-140.43;86.80
30714;BME280;17465;47.934;33.430;2024-03-02T06:20:45;57249.95;;;-140.43;86.80
30714;BME280;17465;47.934;33.430;2024-03-02T06:23:17;57218.17;;;-140.43;87.04
30714;BME280;17465;47.934;33.430;2024-03-02T06:25:47;57237.23;;;-140.43;87.78
30714;BME280;17465;47.934;33.430;2024-03-02T06:28:17;57233.00;;;-140.43;87.17
30714;BME280;17465;47.934;33.430;2024-03-02T06:30:48;57231.94;;;-140.43;85.74
30714;BME280;17465;47.934;33.430;2024-03-02T06:33:18;57241.47;;;-140.43;86.66
30714;BME280;17465;47.934;33.430;2024-03-02T06:35:48;57224.53;;;-140.43;86.15
30714;BME280;17465;47.934;33.430;2024-03-02T06:38:19;57236.18;;;-140.43;86.38
30714;BME280;17465;47.934;33.430;2024-03-02T06:40:49;57223.46;;;-140.43;86.35
30714;BME280;17465;47.934;33.430;2024-03-02T06:43:19;57226.64;;;-140.43;86.52
30714;BME280;17465;47.934;33.430;2024-03-02T06:45:52;57228.76;;;-140.43;86.33
30714;BME280;17465;47.934;33.430;2024-03-02T06:48:22;57235.12;;;-140.43;88.65
30714;BME280;17465;47.934;33.430;2024-03-02T06:50:53;57236.18;;;-140.43;87.12
30714;BME280;17465;47.934;33.430;2024-03-02T06:53:23;57228.76;;;-140.43;89.02
30714;BME280;17465;47.934;33.430;2024-03-02T06:55:53;57231.94;;;-140.43;88.39
30714;BME280;17465;47.934;33.430;2024-03-02T06:58:23;57231.94;;;-140.43;88.39
30714;BME280;17465;47.934;33.430;2024-03-02T07:00:53;57216.05;;;-140.43;87.78
30714;BME280;17465;47.934;33.430;2024-03-02T07:03:24;57223.46;;;-140.43;86.73
30714;BME280;17465;47.934;33.430;2024-03-02T07:05:54;57223.46;;;-140.43;86.73
30714;BME280;17465;47.934;33.430;2024-03-02T07:08:24;57211.82;;;-140.43;86.97
30714;BME280;17465;47.934;33.430;2024-03-02T07:10:55;57229.82;;;-140.43;86.19
30714;BME280;17465;47.934;33.430;2024-03-02T07:13:25;57229.82;;;-140.43;86.19
30714;BME280;17465;47.934;33.430;2024-03-02T07:15:55;57206.52;;;-140.43;85.78
30714;BME280;17465;47.934;33.430;2024-03-02T07:18:25;57226.64;;;-140.43;84.66
30714;BME280;17465;47.934;33.430;2024-03-02T07:20:56;57240.41;;;-140.43;85.80
30714;BME280;17465;47.934;33.430;2024-03-02T07:23:27;57240.41;;;-140.43;85.80
30714;BME280;17465;47.934;33.430;2024-03-02T07:25:57;57237.23;;;-140.43;84.80
30714;BME280;17465;47.934;33.430;2024-03-02T07:28:30;57239.35;;;-140.43;83.24
30714;BME280;17465;47.934;33.430;2024-03-02T07:31:02;57215.00;;;-140.43;82.46
30714;BME280;17465;47.934;33.430;2024-03-02T07:33:32;57220.29;;;-140.43;84.04
30714;BME280;17465;47.934;33.430;2024-03-02T07:36:03;57229.82;;;-140.43;81.53
30714;BME280;17465;47.934;33.430;2024-03-02T07:38:34;57231.94;;;-140.43;83.30
30714;BME280;17465;47.934;33.430;2024-03-02T07:41:04;57231.94;;;-140.43;83.30
30714;BME280;17465;47.934;33.430;2024-03-02T07:43:35;57220.29;;;-140.43;82.03
30714;BME280;17465;47.934;33.430;2024-03-02T07:46:05;57240.41;;;-140.43;82.55
30714;BME280;17465;47.934;33.430;2024-03-02T07:48:36;57240.41;;;-140.43;82.55
30714;BME280;17465;47.934;33.430;2024-03-02T07:51:06;57216.05;;;-140.43;81.40
30714;BME280;17465;47.934;33.430;2024-03-02T07:53:36;57220.29;;;-140.43;81.98
30714;BME280;17465;47.934;33.430;2024-03-02T07:56:07;57243.59;;;-140.43;81.75
30714;BME280;17465;47.934;33.430;2024-03-02T07:58:37;57243.59;;;-140.43;81.75
30714;BME280;17465;47.934;33.430;2024-03-02T08:01:08;57233.00;;;-140.43;81.92
30714;BME280;17465;47.934;33.430;2024-03-02T08:03:38;57233.00;;;-140.43;81.92
30714;BME280;17465;47.934;33.430;2024-03-02T08:06:08;57237.23;;;-140.43;81.96
30714;BME280;17465;47.934;33.430;2024-03-02T08:08:39;57213.94;;;-140.43;82.39
30714;BME280;17465;47.934;33.430;2024-03-02T08:11:10;57236.18;;;-140.43;80.40
30714;BME280;17465;47.934;33.430;2024-03-02T08:13:40;57236.18;;;-140.43;80.40
30714;BME280;17465;47.934;33.430;2024-03-02T08:16:10;57255.24;;;-140.43;78.70
30714;BME280;17465;47.934;33.430;2024-03-02T08:18:41;57221.35;;;-140.43;78.09
30714;BME280;17465;47.934;33.430;2024-03-02T08:21:11;57221.35;;;-140.43;78.09
30714;BME280;17465;47.934;33.430;2024-03-02T08:23:48;57238.29;;;-140.43;78.87
30714;BME280;17465;47.934;33.430;2024-03-02T08:26:18;57248.88;;;-140.43;78.68
30714;BME280;17465;47.934;33.430;2024-03-02T08:28:49;57248.88;;;-140.43;78.68
30714;BME280;17465;47.934;33.430;2024-03-02T08:31:19;57223.46;;;-140.43;78.06
30714;BME280;17465;47.934;33.430;2024-03-02T08:33:49;57252.06;;;-140.43;77.52
30714;BME280;17465;47.934;33.430;2024-03-02T08:36:20;57241.47;;;-140.43;75.68
30714;BME280;17465;47.934;33.430;2024-03-02T08:38:50;57215.00;;;-140.43;75.26
30714;BME280;17465;47.934;33.430;2024-03-02T08:41:21;57237.23;;;-140.43;75.86
30714;BME280;17465;47.934;33.430;2024-03-02T08:43:51;57235.12;;;-140.43;75.42
30714;BME280;17465;47.934;33.430;2024-03-02T08:46:22;57230.88;;;-140.43;74.67
30714;BME280;17465;47.934;33.430;2024-03-02T08:48:52;57244.65;;;-140.43;74.62
30714;BME280;17465;47.934;33.430;2024-03-02T08:51:22;57227.70;;;-140.43;73.43
30714;BME280;17465;47.934;33.430;2024-03-02T08:53:53;57227.70;;;-140.43;73.43
30714;BME280;17465;47.934;33.430;2024-03-02T08:56:23;57241.47;;;-140.43;73.02
30714;BME280;17465;47.934;33.430;2024-03-02T08:58:54;57261.59;;;-140.43;72.48
30714;BME280;17465;47.934;33.430;2024-03-02T09:01:24;57255.24;;;-140.43;72.33
30714;BME280;17465;47.934;33.430;2024-03-02T09:03:55;57255.24;;;-140.43;72.05
30714;BME280;17465;47.934;33.430;2024-03-02T09:06:25;57248.88;;;-140.43;70.93
30714;BME280;17465;47.934;33.430;2024-03-02T09:08:56;57252.06;;;-140.43;71.55
30714;BME280;17465;47.934;33.430;2024-03-02T09:11:26;57248.88;;;-140.43;71.08
30714;BME280;17465;47.934;33.430;2024-03-02T09:13:57;57245.71;;;-140.43;72.09
30714;BME280;17465;47.934;33.430;2024-03-02T09:16:27;57253.12;;;-140.43;71.50
30714;BME280;17465;47.934;33.430;2024-03-02T09:18:57;57262.65;;;-140.43;71.08
30714;BME280;17465;47.934;33.430;2024-03-02T09:21:28;57234.06;;;-140.43;71.57
30714;BME280;17465;47.934;33.430;2024-03-02T09:23:58;57252.06;;;-140.43;70.63
30714;BME280;17465;47.934;33.430;2024-03-02T09:26:28;57247.82;;;-140.43;71.11
30714;BME280;17465;47.934;33.430;2024-03-02T09:28:59;57262.65;;;-140.43;71.56
30714;BME280;17465;47.934;33.430;2024-03-02T09:31:29;57263.71;;;-140.43;71.43
30714;BME280;17465;47.934;33.430;2024-03-02T09:33:59;57263.71;;;-140.43;71.43
30714;BME280;17465;47.934;33.430;2024-03-02T09:36:30;57257.36;;;-140.43;70.61
30714;BME280;17465;47.934;33.430;2024-03-02T09:39:00;57231.94;;;-140.43;70.19
30714;BME280;17465;47.934;33.430;2024-03-02T09:41:32;57252.06;;;-140.43;71.16
30714;BME280;17465;47.934;33.430;2024-03-02T09:44:04;57252.06;;;-140.43;71.16
30714;BME280;17465;47.934;33.430;2024-03-02T09:46:34;57276.42;;;-140.43;70.74
30714;BME280;17465;47.934;33.430;2024-03-02T09:49:04;57248.88;;;-140.43;70.90
30714;BME280;17465;47.934;33.430;2024-03-02T09:51:35;57258.41;;;-140.43;70.66
30714;BME280;17465;47.934;33.430;2024-03-02T09:54:07;57274.30;;;-140.43;70.79
30714;BME280;17465;47.934;33.430;2024-03-02T09:56:39;57265.83;;;-140.43;70.76
30714;BME280;17465;47.934;33.430;2024-03-02T09:59:09;57251.00;;;-140.43;70.46
30714;BME280;17465;47.934;33.430;2024-03-02T10:01:40;57251.00;;;-140.43;70.46
30714;BME280;17465;47.934;33.430;2024-03-02T10:07:13;57255.24;;;-140.43;70.88
30714;BME280;17465;47.934;33.430;2024-03-02T10:09:48;57241.47;;;-140.43;71.87
30714;BME280;17465;47.934;33.430;2024-03-02T10:12:18;57253.12;;;-140.43;71.15
30714;BME280;17465;47.934;33.430;2024-03-02T10:14:49;57239.35;;;-140.43;71.04
30714;BME280;17465;47.934;33.430;2024-03-02T10:17:20;57281.71;;;-140.43;69.66
30714;BME280;17465;47.934;33.430;2024-03-02T10:19:50;57284.89;;;-140.43;69.84
30714;BME280;17465;47.934;33.430;2024-03-02T10:22:22;57265.83;;;-140.43;69.72
30714;BME280;17465;47.934;33.430;2024-03-02T10:24:53;57301.84;;;-140.43;68.96
30714;BME280;17465;47.934;33.430;2024-03-02T10:27:27;57301.84;;;-140.43;68.96
30714;BME280;17465;47.934;33.430;2024-03-02T10:29:57;57262.65;;;-140.43;69.55
30714;BME280;17465;47.934;33.430;2024-03-02T10:32:28;57280.66;;;-140.43;69.63
30714;BME280;17465;47.934;33.430;2024-03-02T10:34:59;57281.71;;;-140.43;69.81
30714;BME280;17465;47.934;33.430;2024-03-02T10:37:30;57280.66;;;-140.43;69.52
30714;BME280;17465;47.934;33.430;2024-03-02T10:40:10;57280.66;;;-140.43;69.51
30714;BME280;17465;47.934;33.430;2024-03-02T10:42:45;57276.42;;;-140.43;69.47
30714;BME280;17465;47.934;33.430;2024-03-02T10:45:17;57276.42;;;-140.43;69.47
30714;BME280;17465;47.934;33.430;2024-03-02T10:47:51;57244.65;;;-140.43;70.02
30714;BME280;17465;47.934;33.430;2024-03-02T10:50:21;57263.71;;;-140.43;69.25
30714;BME280;17465;47.934;33.430;2024-03-02T10:52:51;57263.71;;;-140.43;69.25
30714;BME280;17465;47.934;33.430;2024-03-02T10:55:22;57244.65;;;-140.43;70.28
30714;BME280;17465;47.934;33.430;2024-03-02T10:57:54;57294.42;;;-140.43;69.34
30714;BME280;17465;47.934;33.430;2024-03-02T11:00:25;57272.18;;;-140.43;69.08
30714;BME280;17465;47.934;33.430;2024-03-02T11:02:58;57251.00;;;-140.43;69.18
30714;BME280;17465;47.934;33.430;2024-03-02T11:05:31;57251.00;;;-140.43;69.18
30714;BME280;17465;47.934;33.430;2024-03-02T11:08:07;57279.59;;;-140.43;68.72
30714;BME280;17465;47.934;33.430;2024-03-02T11:10:48;57297.60;;;-140.43;68.47
30714;BME280;17465;47.934;33.430;2024-03-02T11:13:24;57297.60;;;-140.43;68.47
30714;BME280;17465;47.934;33.430;2024-03-02T11:15:52;57263.71;;;-140.43;69.67
30714;BME280;17465;47.934;33.430;2024-03-02T11:18:24;57244.65;;;-140.43;69.97
30714;BME280;17465;47.934;33.430;2024-03-02T11:20:55;57253.12;;;-140.43;69.60
30714;BME280;17465;47.934;33.430;2024-03-02T11:23:33;57253.12;;;-140.43;69.60
30714;BME280;17465;47.934;33.430;2024-03-02T11:26:20;57271.13;;;-140.43;69.18
30714;BME280;17465;47.934;33.430;2024-03-02T11:28:51;57266.89;;;-140.43;68.91
30714;BME280;17465;47.934;33.430;2024-03-02T11:31:22;57266.89;;;-140.43;68.91
30714;BME280;17465;47.934;33.430;2024-03-02T11:33:52;57257.36;;;-140.43;69.52
30714;BME280;17465;47.934;33.430;2024-03-02T11:36:22;57246.77;;;-140.43;69.95
30714;BME280;17465;47.934;33.430;2024-03-02T11:38:53;57246.77;;;-140.43;69.95
30714;BME280;17465;47.934;33.430;2024-03-02T11:41:24;57263.71;;;-140.43;69.56
30714;BME280;17465;47.934;33.430;2024-03-02T11:43:54;57245.71;;;-140.43;69.40
30714;BME280;17465;47.934;33.430;2024-03-02T11:46:26;57292.30;;;-140.43;69.20
30714;BME280;17465;47.934;33.430;2024-03-02T11:48:56;57298.66;;;-140.43;69.10
30714;BME280;17465;47.934;33.430;2024-03-02T11:51:27;57270.06;;;-140.43;69.27
30714;BME280;17465;47.934;33.430;2024-03-02T11:53:58;57272.18;;;-140.43;69.10
30714;BME280;17465;47.934;33.430;2024-03-02T11:56:31;57287.01;;;-140.43;69.50
30714;BME280;17465;47.934;33.430;2024-03-02T11:59:08;57279.59;;;-140.43;70.05
30714;BME280;17465;47.934;33.430;2024-03-02T12:01:38;57269.00;;;-140.43;69.73
30714;BME280;17465;47.934;33.430;2024-03-02T12:04:09;57287.01;;;-140.43;70.39
30714;BME280;17465;47.934;33.430;2024-03-02T12:06:40;57291.25;;;-140.43;69.59
30714;BME280;17465;47.934;33.430;2024-03-02T12:09:10;57270.06;;;-140.43;69.36
30714;BME280;17465;47.934;33.430;2024-03-02T12:11:41;57293.36;;;-140.43;69.86
30714;BME280;17465;47.934;33.430;2024-03-02T12:14:14;57249.95;;;-140.43;69.93
30714;BME280;17465;47.934;33.430;2024-03-02T12:16:45;57258.41;;;-140.43;69.62
30714;BME280;17465;47.934;33.430;2024-03-02T12:19:15;57280.66;;;-140.43;69.64
30714;BME280;17465;47.934;33.430;2024-03-02T12:21:46;57245.71;;;-140.43;70.20
30714;BME280;17465;47.934;33.430;2024-03-02T12:24:17;57257.36;;;-140.43;70.33
30714;BME280;17465;47.934;33.430;2024-03-02T12:26:47;57257.36;;;-140.43;70.33
30714;BME280;17465;47.934;33.430;2024-03-02T12:29:19;57255.24;;;-140.43;70.05
30714;BME280;17465;47.934;33.430;2024-03-02T12:31:51;57256.30;;;-140.43;70.51
30714;BME280;17465;47.934;33.430;2024-03-02T12:34:22;57256.30;;;-140.43;70.51
30714;BME280;17465;47.934;33.430;2024-03-02T12:36:53;57276.42;;;-140.43;70.15
30714;BME280;17465;47.934;33.430;2024-03-02T12:39:23;57261.59;;;-140.43;70.51
30714;BME280;17465;47.934;33.430;2024-03-02T12:41:54;57265.83;;;-140.43;70.75
30714;BME280;17465;47.934;33.430;2024-03-02T12:44:24;57259.47;;;-140.43;70.00
30714;BME280;17465;47.934;33.430;2024-03-02T12:46:54;57259.47;;;-140.43;70.00
30714;BME280;17465;47.934;33.430;2024-03-02T12:49:26;57262.65;;;-140.43;70.31
30714;BME280;17465;47.934;33.430;2024-03-02T12:51:57;57264.77;;;-140.43;69.90